Time;durP1;ratioP1;P1;durP2;ratioP2;P2;SDS_P1;SDS_P2;PMS_P1;PMS_P2;Temp;Humidity;BMP_temperature;BMP_pressure;BME280_temperature;BME280_humidity;BME280_pressure;Samples;Min_cycle;Max_cycle;Signal;HPM_P1;HPM_P2
2021/01/10 00:02:18;;;;;;;100.35;50.47;;;1.80;99.90;;;;;;5071325;28;20024;-76
2021/01/10 00:04:44;;;;;;;111.13;51.60;;;1.70;99.90;;;;;;5071046;28;20696;-76
2021/01/10 00:07:10;;;;;;;103.13;47.33;;;1.70;99.90;;;;;;5052966;28;20035;-76
2021/01/10 00:09:36;;;;;;;102.43;47.50;;;1.70;99.90;;;;;;5071170;28;20024;-76
2021/01/10 00:12:02;;;;;;;108.75;47.50;;;1.70;99.90;;;;;;5071202;28;20033;-76
2021/01/10 00:14:27;;;;;;;163.05;75.25;;;1.80;99.90;;;;;;5071071;28;20032;-76
2021/01/10 00:16:53;;;;;;;110.53;51.92;;;1.80;99.90;;;;;;5054670;28;20027;-77
2021/01/10 00:19:19;;;;;;;103.22;48.13;;;1.80;99.90;;;;;;5074765;28;20045;-77
2021/01/10 00:21:45;;;;;;;127.00;54.88;;;1.80;99.90;;;;;;5075101;28;20028;-76
2021/01/10 00:24:11;;;;;;;105.47;49.10;;;1.70;99.90;;;;;;5074493;28;20025;-77
2021/01/10 00:26:37;;;;;;;102.45;51.05;;;1.70;99.90;;;;;;5074413;28;20052;-77
2021/01/10 00:29:07;;;;;;;151.18;72.70;;;1.70;99.90;;;;;;5074198;28;20031;-77
2021/01/10 00:31:36;;;;;;;115.13;54.65;;;1.70;99.90;;;;;;5056593;28;20086;-77
2021/01/10 00:34:03;;;;;;;105.22;49.40;;;1.70;99.90;;;;;;5074250;28;20025;-77
2021/01/10 00:36:33;;;;;;;102.57;48.97;;;1.70;99.90;;;;;;5074471;28;20018;-77
2021/01/10 00:38:59;;;;;;;104.95;51.40;;;1.70;99.90;;;;;;5074236;28;20384;-77
2021/01/10 00:41:25;;;;;;;123.28;61.53;;;1.70;99.90;;;;;;5074356;28;20032;-77
2021/01/10 00:43:51;;;;;;;199.85;87.18;;;1.70;99.90;;;;;;5074270;28;20372;-77
2021/01/10 00:46:16;;;;;;;152.85;67.65;;;1.70;99.90;;;;;;5074611;28;20029;-77
2021/01/10 00:48:42;;;;;;;103.07;50.83;;;1.70;99.90;;;;;;5074431;28;20028;-77
2021/01/10 00:51:13;;;;;;;144.88;66.60;;;1.70;99.90;;;;;;5074568;28;20368;-77
2021/01/10 00:53:40;;;;;;;149.27;65.22;;;1.70;99.90;;;;;;5074493;28;20017;-77
2021/01/10 00:56:07;;;;;;;120.93;54.58;;;1.70;99.90;;;;;;5074350;28;20021;-78
2021/01/10 00:58:33;;;;;;;145.90;64.13;;;1.70;99.90;;;;;;5074420;28;20028;-77
2021/01/10 01:00:59;;;;;;;123.03;58.70;;;1.70;99.90;;;;;;5074298;28;20024;-77
2021/01/10 01:03:24;;;;;;;119.30;56.05;;;1.70;99.90;;;;;;5074337;28;20056;-77
2021/01/10 01:05:50;;;;;;;104.85;49.42;;;1.70;99.90;;;;;;5074337;28;20029;-77
2021/01/10 01:08:16;;;;;;;100.78;48.28;;;1.70;99.90;;;;;;5074230;28;20028;-77
2021/01/10 01:10:46;;;;;;;130.38;51.85;;;1.70;99.90;;;;;;5074161;28;20020;-77
2021/01/10 01:13:12;;;;;;;147.40;59.80;;;1.70;99.90;;;;;;5074123;28;20017;-77
2021/01/10 01:15:38;;;;;;;110.63;51.90;;;1.80;99.90;;;;;;5074038;28;20036;-77
2021/01/10 01:18:04;;;;;;;113.55;52.35;;;1.70;99.90;;;;;;5074161;28;20016;-77
2021/01/10 01:20:29;;;;;;;110.13;50.78;;;1.70;99.90;;;;;;5074107;28;20035;-77
2021/01/10 01:22:55;;;;;;;106.65;48.35;;;1.70;99.90;;;;;;5073811;28;20514;-77
2021/01/10 01:25:21;;;;;;;96.55;45.72;;;1.70;99.90;;;;;;5073445;28;20021;-77
2021/01/10 01:27:46;;;;;;;99.13;49.97;;;1.70;99.90;;;;;;5055021;28;20023;-77
2021/01/10 01:30:13;;;;;;;103.82;48.38;;;1.70;99.90;;;;;;5073121;28;20199;-77
2021/01/10 01:32:39;;;;;;;101.95;50.10;;;1.70;99.90;;;;;;5055486;28;20380;-77
2021/01/10 01:35:05;;;;;;;104.85;46.55;;;1.70;99.90;;;;;;5055456;28;20021;-77
2021/01/10 01:37:33;;;;;;;95.45;46.10;;;1.80;99.90;;;;;;5073319;28;20523;-76
2021/01/10 01:39:58;;;;;;;98.32;46.28;;;1.80;99.90;;;;;;5073610;28;20035;-77
2021/01/10 01:42:24;;;;;;;100.45;47.10;;;1.80;99.90;;;;;;5073292;28;20028;-76
2021/01/10 01:44:50;;;;;;;103.95;48.53;;;1.80;99.90;;;;;;5073122;28;20032;-77
2021/01/10 01:47:20;;;;;;;95.18;47.42;;;1.80;99.90;;;;;;5055042;28;20024;-77
2021/01/10 01:49:47;;;;;;;;;;;1.80;99.90;;;;;;5073378;28;20036;-77
2021/01/10 01:52:13;;;;;;;87.50;42.10;;;1.80;99.90;;;;;;5073193;28;19908;-77
2021/01/10 01:54:39;;;;;;;91.82;45.03;;;1.80;99.90;;;;;;5055591;28;20060;-77
2021/01/10 01:57:05;;;;;;;94.88;44.10;;;1.80;99.90;;;;;;5072843;28;20068;-77
2021/01/10 01:59:31;;;;;;;96.38;47.42;;;1.80;99.90;;;;;;5072767;28;20028;-77
2021/01/10 02:01:57;;;;;;;112.25;55.35;;;1.80;99.90;;;;;;5072871;28;20031;-77
2021/01/10 02:04:29;;;;;;;119.68;57.35;;;1.80;99.90;;;;;;5073081;28;20032;-77
2021/01/10 02:07:21;;;;;;;127.50;62.10;;;1.80;99.90;;;;;;5072768;28;20024;-77
2021/01/10 02:09:54;;;;;;;147.95;72.00;;;1.80;99.90;;;;;;5072543;28;20060;-76
2021/01/10 02:12:22;;;;;;;188.45;78.35;;;1.80;99.90;;;;;;5072492;28;20111;-76
2021/01/10 02:14:58;;;;;;;139.30;65.47;;;1.80;99.90;;;;;;5072519;28;20021;-77
2021/01/10 02:17:27;;;;;;;131.23;59.67;;;1.80;99.90;;;;;;5072647;28;20054;-77
2021/01/10 02:20:02;;;;;;;126.72;64.55;;;1.80;99.90;;;;;;5072417;28;20062;-77
2021/01/10 02:22:32;;;;;;;131.15;60.17;;;1.80;99.90;;;;;;5054464;28;20400;-77
2021/01/10 02:24:59;;;;;;;116.55;54.45;;;1.80;99.90;;;;;;5072522;28;20085;-76
2021/01/10 02:27:25;;;;;;;165.55;71.88;;;1.80;99.90;;;;;;5072293;28;20027;-76
2021/01/10 02:29:51;;;;;;;132.80;62.78;;;1.80;99.90;;;;;;5071905;28;20040;-76
2021/01/10 02:32:20;;;;;;;133.55;61.97;;;1.80;99.90;;;;;;5072301;28;20017;-76
2021/01/10 02:34:46;;;;;;;114.22;56.95;;;1.80;99.90;;;;;;5072234;28;20050;-76
2021/01/10 02:37:20;;;;;;;171.55;67.47;;;1.70;99.90;;;;;;5072033;28;20016;-77
2021/01/10 02:40:02;;;;;;;130.30;59.58;;;1.70;99.90;;;;;;5072368;28;20032;-77
2021/01/10 02:42:47;;;;;;;119.13;53.63;;;1.70;99.90;;;;;;5072375;28;20028;-77
2021/01/10 02:45:18;;;;;;;99.22;46.10;;;1.70;99.90;;;;;;5072566;28;20035;-77
2021/01/10 02:47:44;;;;;;;109.00;51.05;;;1.70;99.90;;;;;;5072777;28;20025;-77
2021/01/10 02:50:10;;;;;;;102.28;49.42;;;1.70;99.90;;;;;;5072765;28;20032;-77
2021/01/10 02:52:36;;;;;;;105.97;49.85;;;1.70;99.90;;;;;;5072755;28;20017;-77
2021/01/10 02:55:03;;;;;;;101.88;47.40;;;1.70;99.90;;;;;;5072354;28;20046;-77
2021/01/10 02:57:38;;;;;;;95.88;44.20;;;1.70;99.90;;;;;;5071814;28;20024;-77
2021/01/10 03:00:07;;;;;;;96.80;47.03;;;1.60;99.90;;;;;;5072032;28;20024;-77
2021/01/10 03:02:34;;;;;;;103.55;48.92;;;1.60;99.90;;;;;;5072768;28;20020;-77
2021/01/10 03:05:01;;;;;;;99.93;47.55;;;1.70;99.90;;;;;;5072723;28;20028;-77
2021/01/10 03:07:28;;;;;;;113.13;51.60;;;1.60;99.90;;;;;;5072548;28;20121;-77
2021/01/10 03:09:55;;;;;;;111.22;53.22;;;1.60;99.90;;;;;;5072369;28;20062;-77
2021/01/10 03:12:25;;;;;;;112.00;54.30;;;1.70;99.90;;;;;;5072269;28;20020;-77
2021/01/10 03:14:55;;;;;;;118.32;55.60;;;1.70;99.90;;;;;;5072494;28;20467;-76
2021/01/10 03:17:45;;;;;;;161.88;56.53;;;1.70;99.90;;;;;;5072096;28;20063;-76
2021/01/10 03:20:19;;;;;;;127.15;53.15;;;1.70;99.90;;;;;;5072333;28;20024;-77
2021/01/10 03:22:47;;;;;;;118.90;54.33;;;1.70;99.90;;;;;;5072313;28;20024;-77
2021/01/10 03:25:16;;;;;;;118.32;57.28;;;1.70;99.90;;;;;;5072339;28;20039;-77
2021/01/10 03:27:41;;;;;;;115.60;55.75;;;1.70;99.90;;;;;;5072209;28;20024;-77
2021/01/10 03:30:10;;;;;;;122.50;54.78;;;1.70;99.90;;;;;;5072178;28;20415;-77
2021/01/10 03:32:36;;;;;;;131.43;62.13;;;1.60;99.90;;;;;;5072231;28;20090;-77
2021/01/10 03:35:05;;;;;;;135.45;66.90;;;1.70;99.90;;;;;;5072275;28;20044;-77
2021/01/10 03:37:30;;;;;;;124.28;60.25;;;1.70;99.90;;;;;;5071806;28;20017;-77
2021/01/10 03:39:56;;;;;;;125.28;61.58;;;1.70;99.90;;;;;;5053696;28;20078;-76
2021/01/10 03:42:22;;;;;;;110.50;53.90;;;1.70;99.90;;;;;;5071746;28;20093;-76
2021/01/10 03:44:48;;;;;;;106.30;49.70;;;1.70;99.90;;;;;;5071912;28;20020;-76
2021/01/10 03:47:14;;;;;;;116.40;51.05;;;1.60;99.90;;;;;;5071819;28;20479;-77
2021/01/10 03:49:40;;;;;;;105.85;54.13;;;1.70;99.90;;;;;;5071568;28;20055;-77
2021/01/10 03:52:05;;;;;;;111.90;52.10;;;1.70;99.90;;;;;;5055396;28;20043;-77
2021/01/10 03:54:31;;;;;;;118.72;53.95;;;1.70;99.90;;;;;;5075757;28;20115;-77
2021/01/10 03:56:57;;;;;;;104.57;49.90;;;1.70;99.90;;;;;;5075239;28;20066;-77
2021/01/10 03:59:23;;;;;;;110.88;52.20;;;1.60;99.90;;;;;;5075282;28;20051;-77
2021/01/10 04:01:48;;;;;;;96.13;48.00;;;1.60;99.90;;;;;;5075336;28;20021;-77
2021/01/10 04:04:14;;;;;;;115.25;56.78;;;1.60;99.90;;;;;;5057386;28;20040;-77
2021/01/10 04:06:40;;;;;;;122.30;57.95;;;1.60;99.90;;;;;;5075431;28;20077;-77
2021/01/10 04:09:06;;;;;;;109.45;56.70;;;1.60;99.90;;;;;;5075519;28;20021;-77
2021/01/10 04:11:32;;;;;;;122.60;56.85;;;1.60;99.90;;;;;;5075357;28;20036;-77
2021/01/10 04:13:57;;;;;;;118.18;56.42;;;1.60;99.90;;;;;;5075203;28;20025;-77
2021/01/10 04:16:23;;;;;;;113.20;55.58;;;1.60;99.90;;;;;;5075232;28;20032;-77
2021/01/10 04:18:49;;;;;;;113.75;53.85;;;1.60;99.90;;;;;;5075627;28;20032;-78
2021/01/10 04:21:15;;;;;;;112.32;50.53;;;1.60;99.90;;;;;;5075412;28;20036;-77
2021/01/10 04:23:41;;;;;;;106.15;51.10;;;1.60;99.90;;;;;;5075227;28;20032;-77
2021/01/10 04:26:06;;;;;;;111.32;53.15;;;1.60;99.90;;;;;;5075403;28;20413;-77
2021/01/10 04:28:32;;;;;;;123.22;55.58;;;1.60;99.90;;;;;;5075569;28;20040;-77
2021/01/10 04:31:00;;;;;;;112.10;54.03;;;1.60;99.90;;;;;;5074946;28;20049;-77
2021/01/10 04:33:26;;;;;;;114.97;53.20;;;1.60;99.90;;;;;;5075057;28;20446;-77
2021/01/10 04:35:51;;;;;;;120.32;53.90;;;1.60;99.90;;;;;;5075122;28;20096;-77
2021/01/10 04:38:17;;;;;;;113.32;52.67;;;1.60;99.90;;;;;;5057005;28;20472;-77
2021/01/10 04:40:44;;;;;;;92.40;44.63;;;1.60;99.90;;;;;;5074981;28;20476;-77
2021/01/10 04:43:10;;;;;;;103.60;47.08;;;1.60;99.90;;;;;;5056936;28;20056;-77
2021/01/10 04:45:37;;;;;;;108.97;50.13;;;1.60;99.90;;;;;;5075070;28;20020;-78
2021/01/10 04:48:03;;;;;;;104.18;48.17;;;1.60;99.90;;;;;;5075108;28;20051;-77
2021/01/10 04:50:32;;;;;;;99.68;48.03;;;1.60;99.90;;;;;;5074817;28;20119;-77
2021/01/10 04:53:00;;;;;;;76.28;41.47;;;1.60;99.90;;;;;;5075105;28;20020;-77
2021/01/10 04:55:29;;;;;;;87.95;43.00;;;1.60;99.90;;;;;;5075066;28;20030;-77
2021/01/10 04:58:02;;;;;;;79.28;39.15;;;1.60;99.90;;;;;;5074859;28;20103;-77
2021/01/10 05:00:31;;;;;;;82.88;39.67;;;1.60;99.90;;;;;;5074924;28;20096;-78
2021/01/10 05:03:13;;;;;;;90.80;49.70;;;1.70;99.90;;;;;;5074916;28;20024;-77
2021/01/10 05:05:40;;;;;;;87.72;48.00;;;1.70;99.90;;;;;;5074869;28;20111;-77
2021/01/10 05:08:08;;;;;;;77.72;41.47;;;1.70;99.90;;;;;;5074952;28;20016;-77
2021/01/10 05:10:34;;;;;;;79.90;43.72;;;1.70;99.90;;;;;;5074491;28;20025;-77
2021/01/10 05:13:00;;;;;;;68.05;36.45;;;1.70;99.90;;;;;;5074510;28;20491;-77
2021/01/10 05:15:26;;;;;;;71.20;38.90;;;1.70;99.90;;;;;;5074300;28;20029;-77
2021/01/10 05:17:56;;;;;;;89.50;40.00;;;1.70;99.90;;;;;;5074374;28;20024;-77
2021/01/10 05:20:25;;;;;;;67.22;37.20;;;1.70;99.90;;;;;;5074451;28;20025;-77
2021/01/10 05:22:51;;;;;;;61.40;35.13;;;1.70;99.90;;;;;;5074288;28;20028;-77
2021/01/10 05:25:17;;;;;;;80.28;52.70;;;1.70;99.90;;;;;;5074524;28;20040;-77
2021/01/10 05:27:52;;;;;;;69.30;40.55;;;1.70;99.90;;;;;;5074391;28;20507;-77
2021/01/10 05:30:29;;;;;;;65.28;36.53;;;1.70;99.90;;;;;;5055807;28;20085;-77
2021/01/10 05:33:07;;;;;;;61.40;32.20;;;1.60;99.90;;;;;;5074336;28;20094;-77
2021/01/10 05:35:55;;;;;;;60.67;33.22;;;1.60;99.90;;;;;;5073999;28;20020;-77
2021/01/10 05:38:33;;;;;;;71.30;36.40;;;1.60;99.90;;;;;;5073729;28;20107;-77
2021/01/10 05:41:10;;;;;;;76.63;40.30;;;1.70;99.90;;;;;;5073670;28;20032;-77
2021/01/10 05:43:36;;;;;;;69.82;34.55;;;1.70;99.90;;;;;;5073573;28;20099;-77
2021/01/10 05:46:18;;;;;;;70.15;35.53;;;1.60;99.90;;;;;;5073203;28;20091;-76
2021/01/10 05:48:46;;;;;;;84.65;43.30;;;1.60;99.90;;;;;;5073335;28;20430;-77
2021/01/10 05:51:12;;;;;;;78.07;39.30;;;1.70;99.90;;;;;;5073005;28;20103;-77
2021/01/10 05:53:41;;;;;;;64.40;35.13;;;1.70;99.90;;;;;;5073443;28;20032;-77
2021/01/10 05:56:08;;;;;;;73.45;38.00;;;1.60;99.90;;;;;;5073344;28;20029;-77
2021/01/10 05:58:34;;;;;;;75.38;38.05;;;1.60;99.90;;;;;;5073667;28;20421;-77
2021/01/10 06:01:10;;;;;;;64.28;35.90;;;1.70;99.90;;;;;;5073417;28;20157;-77
2021/01/10 06:03:37;;;;;;;75.38;37.67;;;1.60;99.90;;;;;;5073560;28;20388;-77
2021/01/10 06:06:04;;;;;;;83.80;41.78;;;1.60;99.90;;;;;;5073175;28;20025;-77
2021/01/10 06:08:38;;;;;;;168.80;69.00;;;1.60;99.90;;;;;;5073035;28;20025;-77
2021/01/10 06:11:27;;;;;;;87.43;45.60;;;1.60;99.90;;;;;;5073046;28;20016;-77
2021/01/10 06:13:56;;;;;;;70.18;37.42;;;1.60;99.90;;;;;;5072747;28;20107;-77
2021/01/10 06:16:48;;;;;;;74.72;39.00;;;1.60;99.90;;;;;;5072974;28;20857;-77
2021/01/10 06:19:17;;;;;;;153.75;66.13;;;1.60;99.90;;;;;;5072455;28;20028;-77
2021/01/10 06:21:47;;;;;;;203.27;80.13;;;1.60;99.90;;;;;;5072780;28;20852;-77
2021/01/10 06:24:19;;;;;;;111.60;53.15;;;1.60;99.90;;;;;;5073183;28;20357;-77
2021/01/10 06:26:49;;;;;;;138.40;60.30;;;1.60;99.90;;;;;;5072998;28;20074;-77
2021/01/10 06:29:19;;;;;;;94.68;46.05;;;1.60;99.90;;;;;;5072678;28;20484;-77
2021/01/10 06:31:51;;;;;;;113.20;45.75;;;1.60;99.90;;;;;;5072730;28;20024;-77
2021/01/10 06:34:19;;;;;;;93.40;48.40;;;1.60;99.90;;;;;;5054857;28;20059;-77
2021/01/10 06:36:46;;;;;;;114.80;59.88;;;1.60;99.90;;;;;;5054897;28;20043;-77
2021/01/10 06:39:14;;;;;;;135.38;63.80;;;1.60;99.90;;;;;;5072739;28;20020;-77
2021/01/10 06:41:45;;;;;;;204.57;94.72;;;1.60;99.90;;;;;;5072962;28;20028;-77
2021/01/10 06:44:12;;;;;;;195.52;90.75;;;1.60;99.90;;;;;;5072733;28;20028;-77
2021/01/10 06:46:37;;;;;;;302.88;132.65;;;1.60;99.90;;;;;;5072240;28;20024;-77
2021/01/10 06:49:04;;;;;;;273.73;120.93;;;1.60;99.90;;;;;;5072207;28;20027;-77
2021/01/10 06:51:31;;;;;;;191.95;95.45;;;1.60;99.90;;;;;;5072721;28;20387;-77
2021/01/10 06:54:03;;;;;;;196.18;89.25;;;1.60;99.90;;;;;;5072496;28;20013;-77
2021/01/10 06:56:30;;;;;;;165.68;81.55;;;1.60;99.90;;;;;;5072396;28;20293;-77
2021/01/10 06:59:11;;;;;;;172.30;90.28;;;1.60;99.90;;;;;;5072467;28;20103;-77
2021/01/10 07:01:49;;;;;;;451.80;251.60;;;1.60;99.90;;;;;;5072544;28;20420;-77
2021/01/10 07:04:15;;;;;;;562.78;338.13;;;1.60;99.90;;;;;;5072270;28;20021;-77
2021/01/10 07:06:52;;;;;;;337.35;177.65;;;1.60;99.90;;;;;;5072586;28;20028;-77
2021/01/10 07:09:20;;;;;;;314.08;178.80;;;1.60;99.90;;;;;;5072361;28;20024;-76
2021/01/10 07:11:46;;;;;;;139.68;73.47;;;1.60;99.90;;;;;;5072146;28;20081;-77
2021/01/10 07:14:12;;;;;;;136.15;67.55;;;1.60;99.90;;;;;;5054164;28;20674;-77
2021/01/10 07:16:43;;;;;;;138.70;69.78;;;1.60;99.90;;;;;;5071842;28;20113;-77
2021/01/10 07:19:11;;;;;;;146.30;71.95;;;1.60;99.90;;;;;;5072259;28;20029;-77
2021/01/10 07:21:46;;;;;;;139.30;71.90;;;1.60;99.90;;;;;;5071859;28;20056;-75
2021/01/10 07:24:24;;;;;;;186.95;95.20;;;1.60;99.90;;;;;;5071245;28;20376;-77
2021/01/10 07:26:52;;;;;;;171.77;86.30;;;1.70;99.90;;;;;;5072737;28;20413;-76
2021/01/10 07:29:39;;;;;;;154.85;79.03;;;1.60;99.90;;;;;;5075515;28;20040;-76
2021/01/10 07:32:14;;;;;;;141.75;73.57;;;1.60;99.90;;;;;;5075438;28;20464;-77
2021/01/10 07:34:45;;;;;;;115.25;60.63;;;1.60;99.90;;;;;;5075995;28;20036;-75
2021/01/10 07:37:26;;;;;;;154.95;84.32;;;1.70;99.90;;;;;;5075684;28;20494;-77
2021/01/10 07:39:59;;;;;;;145.48;74.35;;;1.80;99.90;;;;;;5075904;28;20040;-77
2021/01/10 07:42:33;;;;;;;165.00;83.97;;;1.70;99.90;;;;;;5075773;28;20392;-77
2021/01/10 07:45:16;;;;;;;106.95;54.80;;;1.70;99.90;;;;;;5075784;28;20036;-77
2021/01/10 07:47:47;;;;;;;111.35;53.10;;;1.70;99.90;;;;;;5075958;28;20028;-77
2021/01/10 07:50:25;;;;;;;128.82;67.45;;;1.70;99.90;;;;;;5075823;28;20113;-77
2021/01/10 07:52:53;;;;;;;99.75;51.80;;;1.70;99.90;;;;;;5057703;28;20024;-77
2021/01/10 07:55:19;;;;;;;100.30;51.38;;;1.70;99.90;;;;;;5058217;28;20028;-77
2021/01/10 07:57:53;;;;;;;97.25;46.58;;;1.70;99.90;;;;;;5076117;28;20021;-77
2021/01/10 08:00:30;;;;;;;101.30;48.20;;;1.70;99.90;;;;;;5075647;28;20024;-77
2021/01/10 08:03:07;;;;;;;86.13;44.88;;;1.70;99.90;;;;;;5043201;28;20025;-77
2021/01/10 08:05:41;;;;;;;119.53;56.80;;;1.60;99.90;;;;;;5056087;28;20028;-78
2021/01/10 08:08:13;;;;;;;148.90;74.72;;;1.70;99.90;;;;;;5037998;28;20056;-77
2021/01/10 08:10:46;;;;;;;172.32;87.13;;;1.70;99.90;;;;;;5055787;28;20027;-78
2021/01/10 08:13:31;;;;;;;117.20;60.65;;;1.70;99.90;;;;;;5055639;28;20021;-78
2021/01/10 08:16:01;;;;;;;97.38;51.92;;;1.70;99.90;;;;;;5056091;28;20029;-78
2021/01/10 08:18:49;;;;;;;117.63;60.53;;;1.70;99.90;;;;;;5055822;28;20013;-77
2021/01/10 08:21:16;;;;;;;127.13;69.00;;;1.70;99.90;;;;;;5054093;28;20025;-78
2021/01/10 08:23:44;;;;;;;109.53;58.70;;;1.70;99.90;;;;;;5054600;28;20070;-78
2021/01/10 08:26:15;;;;;;;109.30;54.00;;;1.70;99.90;;;;;;5054918;28;20380;-78
2021/01/10 08:28:53;;;;;;;107.47;54.75;;;1.70;99.90;;;;;;5054706;28;20083;-77
2021/01/10 08:31:24;;;;;;;188.00;100.32;;;1.80;99.90;;;;;;5032268;28;20056;-77
2021/01/10 08:34:09;;;;;;;125.70;66.85;;;1.70;99.90;;;;;;5032460;28;20432;-78
2021/01/10 08:36:37;;;;;;;192.48;97.05;;;1.70;99.90;;;;;;5033392;28;20022;-77
2021/01/10 08:39:09;;;;;;;270.67;141.38;;;1.80;99.90;;;;;;5033263;28;20109;-77
2021/01/10 08:41:42;;;;;;;200.55;102.38;;;1.80;99.90;;;;;;5033926;28;20036;-77
2021/01/10 08:44:21;;;;;;;165.23;88.70;;;1.80;99.90;;;;;;5032472;28;20469;-77
2021/01/10 08:46:50;;;;;;;170.55;89.57;;;1.80;99.90;;;;;;5033731;28;20427;-77
2021/01/10 08:49:25;;;;;;;212.27;111.18;;;1.80;99.90;;;;;;5033558;28;20127;-77
2021/01/10 08:51:51;;;;;;;166.88;87.03;;;1.80;99.90;;;;;;5033548;28;20716;-78
2021/01/10 08:54:22;;;;;;;160.57;89.10;;;1.80;99.90;;;;;;5034057;28;20489;-78
2021/01/10 08:56:53;;;;;;;154.48;82.15;;;1.80;99.90;;;;;;5034018;28;20100;-78
2021/01/10 08:59:20;;;;;;;176.50;92.97;;;1.80;99.90;;;;;;5033744;28;20540;-77
2021/01/10 09:01:47;;;;;;;406.52;218.10;;;1.80;99.90;;;;;;5033683;28;20049;-77
2021/01/10 09:04:14;;;;;;;237.20;122.07;;;1.80;99.90;;;;;;5033278;28;20026;-77
2021/01/10 09:06:49;;;;;;;186.27;95.78;;;1.80;99.90;;;;;;5036515;28;20107;-76
2021/01/10 09:09:42;;;;;;;241.40;124.20;;;1.90;99.90;;;;;;5051794;28;20068;-76
2021/01/10 09:12:30;;;;;;;184.75;93.90;;;1.90;99.90;;;;;;5052894;28;20025;-76
2021/01/10 09:14:58;;;;;;;238.38;121.53;;;1.90;99.90;;;;;;5053260;28;20602;-77
2021/01/10 09:17:41;;;;;;;238.90;122.25;;;1.90;99.90;;;;;;5053163;28;20025;-76
2021/01/10 09:20:31;;;;;;;216.40;112.90;;;1.80;99.90;;;;;;5053450;28;20577;-77
2021/01/10 09:22:58;;;;;;;192.10;101.68;;;1.80;99.90;;;;;;5042930;28;20041;-78
2021/01/10 09:25:25;;;;;;;119.43;62.80;;;1.80;99.90;;;;;;5052812;28;20029;-76
2021/01/10 09:28:09;;;;;;;158.55;85.80;;;1.80;99.90;;;;;;5052687;28;20146;-79
2021/01/10 09:30:38;;;;;;;156.00;82.15;;;1.80;99.90;;;;;;5034943;28;923193;-76
2021/01/10 09:33:05;;;;;;;165.45;87.18;;;1.90;99.90;;;;;;5073647;28;20487;-76
2021/01/10 09:35:45;;;;;;;188.13;92.30;;;1.80;99.90;;;;;;5055546;28;20025;-76
2021/01/10 09:38:16;;;;;;;158.02;83.28;;;1.80;99.90;;;;;;5072796;28;20107;-78
2021/01/10 09:41:04;;;;;;;195.13;98.18;;;1.80;99.90;;;;;;5073257;28;20428;-79
2021/01/10 09:43:50;;;;;;;214.20;114.18;;;1.80;99.90;;;;;;5073352;28;20070;-79
2021/01/10 09:46:22;;;;;;;144.80;76.22;;;1.80;99.90;;;;;;5072706;28;20044;-79
2021/01/10 09:49:20;;;;;;;163.15;85.10;;;1.80;99.90;;;;;;5054302;28;20059;-79
2021/01/10 09:51:49;;;;;;;147.30;78.82;;;1.80;99.90;;;;;;5073402;28;20031;-77
2021/01/10 09:54:24;;;;;;;160.98;78.15;;;1.90;99.90;;;;;;5071868;28;20099;-76
2021/01/10 09:57:01;;;;;;;175.90;83.45;;;1.80;99.90;;;;;;5072837;28;20035;-79
2021/01/10 09:59:51;;;;;;;171.48;85.18;;;1.80;99.90;;;;;;5072282;28;20107;-77
2021/01/10 10:02:32;;;;;;;143.15;73.32;;;1.80;99.90;;;;;;5072184;28;20032;-77
2021/01/10 10:05:22;;;;;;;157.77;70.65;;;1.90;99.90;;;;;;5071638;28;20380;-77
2021/01/10 10:07:50;;;;;;;167.02;82.45;;;1.90;99.90;;;;;;5072184;28;20028;-77
2021/01/10 10:10:29;;;;;;;173.35;85.07;;;1.90;99.90;;;;;;5073343;28;20024;-76
2021/01/10 10:13:07;;;;;;;269.70;117.55;;;1.90;99.90;;;;;;5073437;28;20020;-77
2021/01/10 10:15:42;;;;;;;212.75;99.47;;;1.90;99.90;;;;;;5073218;28;20070;-77
2021/01/10 10:18:09;;;;;;;215.43;98.45;;;1.90;99.90;;;;;;5070395;28;20025;-76
2021/01/10 10:20:34;;;;;;;211.65;101.63;;;1.90;99.90;;;;;;5071540;28;20047;-77
2021/01/10 10:23:12;;;;;;;226.82;110.45;;;2.00;99.90;;;;;;5054234;28;20380;-77
2021/01/10 10:25:39;;;;;;;153.27;78.28;;;2.00;99.90;;;;;;5072132;28;20082;-77
2021/01/10 10:28:06;;;;;;;147.00;76.03;;;2.00;99.90;;;;;;5054646;28;20081;-77
2021/01/10 10:30:33;;;;;;;154.25;74.78;;;2.00;99.90;;;;;;5072710;28;20041;-77
2021/01/10 10:33:00;;;;;;;113.40;55.90;;;2.00;99.90;;;;;;5071392;28;20017;-77
2021/01/10 10:35:26;;;;;;;115.80;58.55;;;2.00;99.90;;;;;;5072442;28;20055;-77
2021/01/10 10:37:52;;;;;;;135.45;64.63;;;2.00;99.90;;;;;;5072562;28;20407;-77
2021/01/10 10:40:19;;;;;;;117.25;60.97;;;2.00;99.90;;;;;;5071940;28;20054;-77
2021/01/10 10:42:45;;;;;;;136.88;65.22;;;2.00;99.90;;;;;;5072587;28;20025;-77
2021/01/10 10:45:11;;;;;;;135.70;63.70;;;2.00;99.90;;;;;;5072613;28;20031;-77
2021/01/10 10:47:37;;;;;;;133.15;65.55;;;2.00;99.90;;;;;;5071884;28;20020;-77
2021/01/10 10:50:04;;;;;;;130.38;66.47;;;2.00;99.90;;;;;;5072242;28;20020;-77
2021/01/10 10:52:30;;;;;;;171.88;80.05;;;2.00;99.90;;;;;;5072413;28;20024;-77
2021/01/10 10:54:56;;;;;;;187.07;91.28;;;2.00;99.90;;;;;;5071606;28;20495;-77
2021/01/10 10:57:22;;;;;;;140.63;65.15;;;2.00;99.90;;;;;;5072154;28;20355;-77
2021/01/10 10:59:48;;;;;;;157.43;74.72;;;2.00;99.90;;;;;;5072046;28;20047;-77
2021/01/10 11:02:15;;;;;;;161.95;72.75;;;2.00;99.90;;;;;;5071185;28;20047;-77
2021/01/10 11:04:42;;;;;;;124.05;61.63;;;2.00;99.90;;;;;;5071869;28;20029;-77
2021/01/10 11:07:09;;;;;;;124.72;61.58;;;2.00;99.90;;;;;;5071704;28;20027;-77
2021/01/10 11:09:35;;;;;;;113.80;55.55;;;2.00;99.90;;;;;;5071303;28;20379;-77
2021/01/10 11:12:01;;;;;;;113.43;55.58;;;1.90;99.90;;;;;;5071867;28;20033;-77
2021/01/10 11:14:27;;;;;;;98.15;48.78;;;2.00;99.90;;;;;;5071296;28;20426;-77
2021/01/10 11:16:53;;;;;;;89.38;45.70;;;2.00;99.90;;;;;;5060493;28;20025;-77
2021/01/10 11:19:20;;;;;;;80.85;43.42;;;1.90;99.90;;;;;;5068886;28;20047;-77
2021/01/10 11:21:49;;;;;;;92.80;47.72;;;1.90;99.90;;;;;;5064619;28;20024;-77
2021/01/10 11:24:16;;;;;;;85.90;43.63;;;2.00;99.90;;;;;;5058895;28;20036;-77
2021/01/10 11:26:45;;;;;;;99.35;47.67;;;1.90;99.90;;;;;;5061537;28;20055;-77
2021/01/10 11:29:13;;;;;;;123.10;61.65;;;1.90;99.90;;;;;;5062436;28;20057;-77
2021/01/10 11:31:40;;;;;;;93.18;46.08;;;2.00;99.90;;;;;;5060382;28;20074;-77
2021/01/10 11:34:10;;;;;;;86.15;43.65;;;2.00;99.90;;;;;;5055100;28;20021;-77
2021/01/10 11:36:36;;;;;;;91.82;43.00;;;2.00;99.90;;;;;;5058579;28;20522;-78
2021/01/10 11:39:03;;;;;;;93.28;46.20;;;1.90;99.90;;;;;;5061031;28;20029;-77
2021/01/10 11:41:29;;;;;;;94.63;46.88;;;1.90;99.90;;;;;;5058700;28;20048;-77
2021/01/10 11:43:55;;;;;;;98.82;46.58;;;2.00;99.90;;;;;;5052056;28;20057;-77
2021/01/10 11:46:22;;;;;;;111.97;53.33;;;2.00;99.90;;;;;;5054001;28;20094;-77
2021/01/10 11:48:49;;;;;;;147.05;72.22;;;2.00;99.90;;;;;;5071217;28;20031;-77
2021/01/10 11:51:16;;;;;;;147.50;76.25;;;2.00;99.90;;;;;;5070795;28;20028;-77
2021/01/10 11:53:43;;;;;;;113.45;57.92;;;2.00;99.90;;;;;;5070729;28;20593;-76
2021/01/10 11:56:09;;;;;;;96.00;51.17;;;2.00;99.90;;;;;;5052460;28;20020;-76
2021/01/10 11:58:38;;;;;;;90.88;43.80;;;2.00;99.90;;;;;;5070382;28;20063;-76
2021/01/10 12:01:05;;;;;;;82.88;42.95;;;2.00;99.90;;;;;;5070115;28;20391;-76
2021/01/10 12:03:31;;;;;;;90.88;44.80;;;1.90;99.90;;;;;;5070497;28;20031;-76
2021/01/10 12:05:57;;;;;;;88.45;41.95;;;2.00;99.90;;;;;;5070212;28;20412;-76
2021/01/10 12:08:23;;;;;;;75.38;39.15;;;2.00;99.90;;;;;;5070008;28;20104;-76
2021/01/10 12:10:50;;;;;;;82.07;42.45;;;2.00;99.90;;;;;;5070488;28;20033;-76
2021/01/10 12:13:17;;;;;;;80.13;40.63;;;1.90;99.90;;;;;;5072850;28;20030;-76
2021/01/10 12:15:46;;;;;;;92.00;45.03;;;1.90;99.90;;;;;;5074204;28;20468;-77
2021/01/10 12:18:12;;;;;;;84.32;42.08;;;2.00;99.90;;;;;;5074220;28;20028;-77
2021/01/10 12:20:38;;;;;;;78.97;42.08;;;2.00;99.90;;;;;;5071666;28;20124;-77
2021/01/10 12:23:04;;;;;;;87.22;44.45;;;2.00;99.90;;;;;;5054369;28;20108;-77
2021/01/10 12:25:31;;;;;;;99.60;50.08;;;2.00;99.90;;;;;;5036773;28;20552;-77
2021/01/10 12:27:57;;;;;;;130.15;67.35;;;2.00;99.90;;;;;;5036519;28;20679;-77
2021/01/10 12:30:23;;;;;;;104.15;49.40;;;2.00;99.90;;;;;;5054092;28;20076;-77
2021/01/10 12:32:50;;;;;;;106.65;53.83;;;2.00;99.90;;;;;;5036702;28;20546;-77
2021/01/10 12:35:18;;;;;;;90.65;47.78;;;2.00;99.90;;;;;;5054127;28;20029;-76
2021/01/10 12:37:46;;;;;;;99.05;46.30;;;2.00;99.90;;;;;;5053805;28;20013;-76
2021/01/10 12:40:14;;;;;;;102.95;50.20;;;2.00;99.90;;;;;;5053417;28;20411;-76
2021/01/10 12:42:40;;;;;;;101.30;46.30;;;2.10;99.90;;;;;;5053750;28;20112;-76